Time;durP1;ratioP1;P1;durP2;ratioP2;P2;SDS_P1;SDS_P2;PMS_P1;PMS_P2;Temp;Humidity;BMP_temperature;BMP_pressure;BME280_temperature;BME280_humidity;BME280_pressure;Samples;Min_cycle;Max_cycle;Signal;HPM_P1;HPM_P2
2021/07/15 00:01:35;;;;;;;13.13;10.52;;;;;;;24.68;67.60;99361.41;3478438;28;20096;-42
2021/07/15 00:03:19;;;;;;;11.85;9.88;;;;;;;24.69;67.47;99357.81;3482295;28;20163;-41
2021/07/15 00:05:00;;;;;;;14.38;10.63;;;;;;;24.71;67.27;99363.91;3471511;28;20426;-41
2021/07/15 00:06:42;;;;;;;18.70;10.60;;;;;;;24.73;67.29;99361.19;3472126;28;20116;-41
2021/07/15 00:08:27;;;;;;;16.33;10.15;;;;;;;24.76;67.19;99369.00;3468993;28;20452;-42
2021/07/15 00:10:18;;;;;;;11.80;10.13;;;;;;;24.78;67.58;99367.13;3472627;28;20076;-42
2021/07/15 00:12:00;;;;;;;14.95;10.52;;;;;;;24.73;66.87;99366.50;3469357;28;20059;-42
2021/07/15 00:13:41;;;;;;;17.90;11.00;;;;;;;24.72;67.66;99364.75;3477309;28;20060;-41
2021/07/15 00:15:25;;;;;;;17.45;11.18;;;;;;;24.67;68.61;99365.84;3480962;28;20037;-41
2021/07/15 00:17:07;;;;;;;14.52;10.80;;;;;;;24.62;68.58;99354.59;3481176;28;20056;-41
2021/07/15 00:18:50;;;;;;;13.75;11.23;;;;;;;24.58;68.77;99360.16;3476904;28;20072;-41
2021/07/15 00:20:35;;;;;;;16.38;10.50;;;;;;;24.56;68.21;99367.31;3482656;28;20547;-42
2021/07/15 00:22:16;;;;;;;12.80;10.65;;;;;;;24.51;69.07;99367.53;3474835;28;20139;-41
2021/07/15 00:23:58;;;;;;;16.65;10.57;;;;;;;24.49;69.67;99364.13;3469388;28;20131;-41
2021/07/15 00:25:41;;;;;;;13.00;10.45;;;;;;;24.49;69.70;99369.41;3478637;28;20084;-42
2021/07/15 00:27:22;;;;;;;14.27;10.82;;;;;;;24.51;69.51;99370.19;3479664;28;20091;-41
2021/07/15 00:29:04;;;;;;;15.60;11.68;;;;;;;24.52;69.88;99369.25;3469732;28;20084;-41
2021/07/15 00:30:46;;;;;;;14.65;11.20;;;;;;;24.48;69.41;99362.38;3472225;28;20122;-42
2021/07/15 00:32:27;;;;;;;14.48;12.20;;;;;;;24.46;69.95;99372.22;3482490;28;20498;-42
2021/07/15 00:34:08;;;;;;;16.00;11.05;;;;;;;24.39;69.26;99366.34;3473634;28;20498;-41
2021/07/15 00:35:50;;;;;;;16.92;10.98;;;;;;;24.38;69.96;99367.25;3469152;28;20087;-42
2021/07/15 00:37:31;;;;;;;13.25;11.20;;;;;;;24.37;70.12;99364.72;3471657;28;20132;-42
2021/07/15 00:39:13;;;;;;;15.10;11.85;;;;;;;24.35;70.50;99369.19;3471080;28;20053;-41
2021/07/15 00:40:55;;;;;;;20.05;11.35;;;;;;;24.36;70.50;99365.63;3469977;28;20077;-41
2021/07/15 00:42:36;;;;;;;15.13;10.80;;;;;;;24.36;70.30;99370.94;3470793;28;20060;-42
2021/07/15 00:44:18;;;;;;;23.10;11.88;;;;;;;24.34;70.36;99368.34;3468699;28;20060;-42
2021/07/15 00:45:59;;;;;;;18.25;11.90;;;;;;;24.32;70.75;99369.38;3471228;28;20077;-41
2021/07/15 00:47:41;;;;;;;17.63;12.18;;;;;;;24.26;70.79;99373.19;3469108;28;20057;-41
2021/07/15 00:49:22;;;;;;;15.27;11.20;;;;;;;24.22;71.17;99377.72;3470580;28;20073;-42
2021/07/15 00:51:05;;;;;;;16.88;11.48;;;;;;;24.21;71.14;99369.88;3470649;28;20442;-42
2021/07/15 00:52:47;;;;;;;16.27;11.80;;;;;;;24.21;70.10;99364.59;3467991;28;20470;-42
2021/07/15 00:54:29;;;;;;;14.40;11.65;;;;;;;24.23;71.09;99368.88;3472467;28;20076;-41
2021/07/15 00:56:11;;;;;;;18.08;12.00;;;;;;;24.21;70.56;99361.94;3482234;28;20529;-41
2021/07/15 00:57:53;;;;;;;15.88;11.63;;;;;;;24.22;69.75;99360.97;3477909;28;20084;-41
2021/07/15 00:59:35;;;;;;;16.27;12.38;;;;;;;24.19;70.43;99364.66;3481792;28;20099;-42
2021/07/15 01:01:16;;;;;;;14.30;12.02;;;;;;;24.18;71.27;99362.06;3478245;28;20084;-41
2021/07/15 01:02:58;;;;;;;16.75;12.05;;;;;;;24.17;70.85;99368.28;3479322;28;20068;-42
2021/07/15 01:04:39;;;;;;;16.02;11.55;;;;;;;24.17;70.51;99370.94;3480448;28;20497;-41
2021/07/15 01:06:21;;;;;;;17.85;11.95;;;;;;;24.19;70.98;99369.06;3477831;28;20530;-41
2021/07/15 01:08:03;;;;;;;16.92;12.02;;;;;;;24.15;70.50;99367.50;3468420;28;20431;-42
2021/07/15 01:09:45;;;;;;;19.83;12.70;;;;;;;24.15;71.29;99367.50;3471889;28;20091;-41
2021/07/15 01:11:33;;;;;;;16.13;12.27;;;;;;;24.14;71.85;99371.09;3468266;28;20148;-41
2021/07/15 01:13:25;;;;;;;17.13;12.07;;;;;;;24.13;72.15;99364.91;3478880;28;20069;-41
2021/07/15 01:15:10;;;;;;;27.50;12.43;;;;;;;24.07;72.15;99368.72;3477991;28;20049;-41
2021/07/15 01:16:57;;;;;;;15.77;11.55;;;;;;;24.05;72.77;99364.44;3482051;28;20118;-41
2021/07/15 01:18:51;;;;;;;15.55;11.43;;;;;;;24.00;72.95;99369.06;3474062;28;20514;-41
2021/07/15 01:20:59;;;;;;;16.88;12.95;;;;;;;23.99;73.03;99372.63;3469035;28;20084;-42
2021/07/15 01:22:44;;;;;;;13.88;11.63;;;;;;;23.92;72.99;99377.34;3479529;28;20080;-41
2021/07/15 01:25:18;;;;;;;20.92;12.70;;;;;;;23.90;72.67;99382.72;3476216;28;20103;-41
2021/07/15 01:27:38;;;;;;;14.32;12.13;;;;;;;23.90;72.81;99376.56;3476633;28;20124;-41
2021/07/15 01:29:27;;;;;;;14.52;12.23;;;;;;;23.88;72.44;99381.06;3458865;28;20135;-41
2021/07/15 01:31:10;;;;;;;14.65;13.07;;;;;;;23.85;72.68;99384.75;3478807;28;20086;-41
2021/07/15 01:33:00;;;;;;;18.77;13.07;;;;;;;23.82;72.89;99379.56;3477825;28;20044;-41
2021/07/15 01:34:44;;;;;;;15.02;12.68;;;;;;;23.82;73.20;99378.69;3468263;28;20080;-41
2021/07/15 01:36:25;;;;;;;;;;;;;;;23.84;72.49;99376.84;3472271;28;20053;-41
2021/07/15 01:38:08;;;;;;;16.55;13.40;;;;;;;23.76;73.04;99368.38;3468726;28;20417;-42
2021/07/15 01:39:52;;;;;;;16.67;13.05;;;;;;;23.74;73.48;99371.09;3477743;28;20481;-41
2021/07/15 01:41:37;;;;;;;15.25;12.80;;;;;;;23.72;73.51;99370.31;3479021;28;20089;-41
2021/07/15 01:43:27;;;;;;;14.25;12.25;;;;;;;23.69;74.29;99371.28;3481297;28;20144;-41
2021/07/15 01:45:09;;;;;;;14.65;11.77;;;;;;;23.68;74.13;99369.59;3474843;28;20087;-41
2021/07/15 01:46:52;;;;;;;17.58;12.25;;;;;;;23.67;74.38;99373.16;3468149;28;20530;-41
2021/07/15 01:48:34;;;;;;;16.05;13.05;;;;;;;23.66;74.41;99376.75;3477248;28;20056;-41
2021/07/15 01:50:15;;;;;;;15.75;13.27;;;;;;;23.65;74.01;99372.38;3479851;28;20219;-41
2021/07/15 01:51:59;;;;;;;16.52;13.48;;;;;;;23.62;74.29;99372.50;3470422;28;20085;-41
2021/07/15 01:53:41;;;;;;;;;;;;;;;23.64;74.05;99375.97;3469463;28;20071;-41
2021/07/15 01:55:23;;;;;;;20.08;13.70;;;;;;;23.59;74.45;99375.31;3468080;28;20437;-41
2021/07/15 01:57:06;;;;;;;15.65;13.20;;;;;;;23.57;74.36;99371.88;3469039;28;20072;-41
2021/07/15 01:58:49;;;;;;;17.60;13.45;;;;;;;23.55;74.72;99371.06;3467965;28;20526;-41
2021/07/15 02:00:31;;;;;;;15.95;13.13;;;;;;;23.54;74.83;99377.31;3476847;28;20072;-42
2021/07/15 02:02:14;;;;;;;14.38;12.70;;;;;;;23.51;75.04;99380.94;3479463;28;20464;-42
2021/07/15 02:03:58;;;;;;;17.17;12.27;;;;;;;23.49;74.93;99381.94;3479716;28;20057;-41
2021/07/15 02:05:42;;;;;;;14.82;13.25;;;;;;;23.45;75.25;99391.81;3477324;28;20073;-41
2021/07/15 02:07:26;;;;;;;16.95;13.70;;;;;;;23.41;75.53;99389.34;3483261;28;20055;-41
2021/07/15 02:09:11;;;;;;;14.68;13.07;;;;;;;23.37;75.51;99387.78;3479764;28;20088;-41
2021/07/15 02:10:54;;;;;;;16.45;13.13;;;;;;;23.32;76.04;99391.50;3483150;28;20057;-41
2021/07/15 02:12:37;;;;;;;17.55;14.20;;;;;;;23.27;76.66;99385.53;3472953;28;20077;-41
2021/07/15 02:14:22;;;;;;;18.70;13.13;;;;;;;23.24;76.41;99385.63;3473768;28;20049;-41
2021/07/15 02:16:06;;;;;;;17.23;13.02;;;;;;;23.21;76.61;99380.44;3470615;28;20091;-41
2021/07/15 02:17:49;;;;;;;15.80;13.23;;;;;;;23.20;76.84;99386.69;3472857;28;20052;-41
2021/07/15 02:19:33;;;;;;;16.23;14.00;;;;;;;23.19;76.55;99384.94;3470242;28;20111;-40
2021/07/15 02:21:15;;;;;;;17.95;13.20;;;;;;;23.19;77.09;99381.47;3473948;28;20084;-41
2021/07/15 02:22:58;;;;;;;16.55;13.25;;;;;;;23.20;76.73;99388.44;3471543;28;20522;-41
2021/07/15 02:24:40;;;;;;;15.73;13.18;;;;;;;23.20;76.72;99388.44;3483630;28;20057;-41
2021/07/15 02:26:23;;;;;;;16.88;13.27;;;;;;;23.21;76.75;99384.88;3478648;28;20040;-41
2021/07/15 02:28:06;;;;;;;14.88;13.27;;;;;;;23.23;77.02;99380.38;3470091;28;20084;-42
2021/07/15 02:29:48;;;;;;;15.38;13.50;;;;;;;23.23;77.02;99385.69;3476546;28;20533;-41
2021/07/15 02:31:35;;;;;;;16.88;13.48;;;;;;;23.22;77.03;99386.59;3483673;28;20187;-42
2021/07/15 02:33:22;;;;;;;20.33;14.50;;;;;;;23.23;76.95;99390.97;3471657;28;20053;-41
2021/07/15 02:35:08;;;;;;;20.02;13.60;;;;;;;23.21;77.20;99390.19;3472477;28;20076;-43
2021/07/15 02:36:51;;;;;;;18.25;14.23;;;;;;;23.19;77.43;99386.75;3469885;28;20169;-43
2021/07/15 02:38:35;;;;;;;17.35;14.55;;;;;;;23.19;77.71;99387.59;3473462;28;20585;-41
2021/07/15 02:40:17;;;;;;;28.25;14.80;;;;;;;23.16;77.89;99382.44;3470071;28;20057;-41
2021/07/15 02:41:59;;;;;;;17.83;13.90;;;;;;;23.18;77.48;99387.66;3478928;28;20510;-41
2021/07/15 02:43:40;;;;;;;17.13;13.98;;;;;;;23.19;78.11;99386.75;3481660;28;20135;-41
2021/07/15 02:45:22;;;;;;;17.50;12.70;;;;;;;23.21;77.68;99390.19;3471117;28;20081;-41
2021/07/15 02:47:03;;;;;;;20.55;14.63;;;;;;;23.22;77.42;99386.59;3474629;28;20079;-41
2021/07/15 02:48:45;;;;;;;17.55;13.43;;;;;;;23.26;77.37;99391.69;3483407;28;20087;-41
2021/07/15 02:50:28;;;;;;;15.18;13.57;;;;;;;23.30;77.31;99390.66;3477051;28;20526;-41
2021/07/15 02:52:10;;;;;;;20.25;14.35;;;;;;;23.33;76.62;99387.03;3468361;28;20622;-42
2021/07/15 02:53:52;;;;;;;16.92;13.57;;;;;;;23.41;77.31;99394.63;3478909;28;20056;-41
2021/07/15 02:55:33;;;;;;;16.35;13.68;;;;;;;23.45;76.80;99398.91;3481829;28;20088;-41
2021/07/15 02:57:23;;;;;;;16.95;14.82;;;;;;;23.45;75.87;99391.81;3480912;28;20080;-41
2021/07/15 02:59:11;;;;;;;19.17;14.40;;;;;;;23.51;75.72;99401.25;3477616;28;20077;-41
2021/07/15 03:00:56;;;;;;;23.08;15.27;;;;;;;23.57;75.77;99394.81;3483741;28;20079;-42
2021/07/15 03:02:46;;;;;;;18.63;13.88;;;;;;;23.60;75.64;99392.06;3478896;28;20510;-42
2021/07/15 03:04:35;;;;;;;15.43;12.63;;;;;;;23.68;76.09;99396.06;3480233;28;20503;-41
2021/07/15 03:06:23;;;;;;;19.58;13.57;;;;;;;23.75;76.42;99395.78;3469716;28;20085;-41
2021/07/15 03:08:07;;;;;;;18.08;13.50;;;;;;;23.80;75.84;99392.03;3473766;28;20080;-41
2021/07/15 03:09:51;;;;;;;14.82;13.25;;;;;;;23.86;75.89;99393.53;3483554;28;20064;-42
2021/07/15 03:11:37;;;;;;;16.70;13.77;;;;;;;23.88;74.33;99397.81;3478915;28;20220;-42
2021/07/15 03:13:19;;;;;;;23.90;14.15;;;;;;;23.95;74.57;99384.31;3481474;28;20532;-41
2021/07/15 03:15:03;;;;;;;15.48;13.88;;;;;;;23.99;74.11;99392.03;3471927;28;20053;-41
2021/07/15 03:16:45;;;;;;;;;;;;;;;24.04;74.03;99384.72;3472539;28;20510;-41
2021/07/15 03:18:30;;;;;;;18.08;13.05;;;;;;;24.08;73.76;99391.66;3469346;28;19932;-42
2021/07/15 03:20:15;;;;;;;15.93;14.23;;;;;;;24.08;73.59;99391.66;3475673;28;20360;-41
2021/07/15 03:21:59;;;;;;;16.17;12.65;;;;;;;24.13;73.07;99401.19;3482814;28;20060;-41
2021/07/15 03:23:42;;;;;;;21.48;13.85;;;;;;;24.17;73.24;99402.75;3481061;28;20547;-41
2021/07/15 03:25:25;;;;;;;14.65;12.55;;;;;;;24.20;72.60;99400.81;3481580;28;20076;-42
2021/07/15 03:27:08;;;;;;;18.38;13.93;;;;;;;24.24;72.68;99409.47;3470509;28;20081;-42
2021/07/15 03:28:52;;;;;;;15.13;13.45;;;;;;;24.25;72.25;99405.91;3471933;28;20055;-41
2021/07/15 03:30:35;;;;;;;17.60;12.82;;;;;;;24.27;72.17;99404.88;3469448;28;20057;-41
2021/07/15 03:32:19;;;;;;;18.00;14.35;;;;;;;24.33;72.09;99405.53;3473000;28;20550;-41
2021/07/15 03:34:01;;;;;;;17.92;13.60;;;;;;;24.37;72.09;99402.69;3470410;28;20060;-42
2021/07/15 03:35:45;;;;;;;16.08;13.13;;;;;;;24.40;71.59;99405.19;3480177;28;20536;-41
2021/07/15 03:37:28;;;;;;;20.38;13.38;;;;;;;24.44;71.80;99396.16;3480719;28;20053;-41
2021/07/15 03:39:10;;;;;;;19.00;13.60;;;;;;;24.47;71.35;99395.13;3469304;28;20046;-42
2021/07/15 03:40:51;;;;;;;23.98;13.27;;;;;;;24.50;71.32;99400.28;3471625;28;20419;-41
2021/07/15 03:42:34;;;;;;;16.25;13.30;;;;;;;24.53;71.41;99402.81;3472304;28;20045;-41
2021/07/15 03:44:16;;;;;;;22.65;15.07;;;;;;;24.58;71.11;99397.28;3473268;28;20609;-41
2021/07/15 03:45:59;;;;;;;20.42;14.18;;;;;;;24.61;70.50;99397.13;3468885;28;20474;-42
2021/07/15 03:47:41;;;;;;;21.35;12.93;;;;;;;24.65;71.00;99396.91;3479116;28;20529;-41
2021/07/15 03:49:25;;;;;;;18.25;14.00;;;;;;;24.71;71.61;99400.19;3478677;28;20080;-42
2021/07/15 03:51:10;;;;;;;17.60;13.02;;;;;;;24.76;70.92;99403.47;3482994;28;20059;-41
2021/07/15 03:52:55;;;;;;;17.45;13.32;;;;;;;24.81;69.89;99397.03;3477031;28;20045;-41
2021/07/15 03:54:38;;;;;;;16.50;13.07;;;;;;;24.87;70.22;99403.84;3482786;28;20053;-42
2021/07/15 03:56:21;;;;;;;19.75;13.02;;;;;;;24.92;70.08;99398.31;3472151;28;20060;-41
2021/07/15 03:58:05;;;;;;;16.58;13.70;;;;;;;25.00;69.54;99404.06;3470860;28;20103;-42
2021/07/15 03:59:50;;;;;;;17.52;13.75;;;;;;;25.05;69.85;99407.34;3481760;28;20049;-42
2021/07/15 04:01:32;;;;;;;22.35;12.93;;;;;;;25.12;69.07;99410.56;3478692;28;20048;-42
2021/07/15 04:03:17;;;;;;;14.65;12.77;;;;;;;25.16;68.48;99405.03;3482682;28;20600;-41
2021/07/15 04:05:00;;;;;;;19.55;12.95;;;;;;;25.23;68.38;99410.91;3472198;28;20041;-43
2021/07/15 04:06:42;;;;;;;16.33;13.23;;;;;;;25.28;68.67;99410.66;3469983;28;20055;-41
2021/07/15 04:08:25;;;;;;;15.95;12.88;;;;;;;25.34;68.84;99415.66;3480470;28;20049;-42
2021/07/15 04:10:11;;;;;;;22.90;13.73;;;;;;;25.38;68.11;99412.75;3478537;28;20430;-42
2021/07/15 04:11:54;;;;;;;22.35;12.95;;;;;;;25.46;68.17;99406.19;3482945;28;20514;-42
2021/07/15 04:13:39;;;;;;;19.48;13.73;;;;;;;25.50;67.75;99403.31;3478218;28;20107;-42
2021/07/15 04:15:30;;;;;;;23.60;13.13;;;;;;;25.58;67.71;99401.16;3482437;28;20528;-42
2021/07/15 04:17:14;;;;;;;21.48;13.00;;;;;;;25.64;67.45;99399.97;3469771;28;20049;-42
2021/07/15 04:18:59;;;;;;;21.50;12.20;;;;;;;25.72;66.23;99404.84;3471337;28;20051;-41
2021/07/15 04:20:41;;;;;;;19.35;12.48;;;;;;;25.76;67.16;99401.09;3468970;28;20107;-42
2021/07/15 04:22:23;;;;;;;16.38;12.32;;;;;;;25.79;66.45;99398.28;3471381;28;20422;-42
2021/07/15 04:24:07;;;;;;;16.30;11.85;;;;;;;25.84;65.59;99398.88;3469970;28;20073;-42
2021/07/15 04:25:52;;;;;;;15.90;12.85;;;;;;;25.87;66.25;99393.41;3479057;28;20088;-42
2021/07/15 04:27:35;;;;;;;14.80;11.95;;;;;;;25.92;66.39;99390.53;3478537;28;20072;-43
2021/07/15 04:29:20;;;;;;;15.57;12.32;;;;;;;25.97;65.88;99391.97;3480706;28;20529;-41
2021/07/15 04:31:06;;;;;;;17.67;12.00;;;;;;;26.04;64.99;99392.47;3478299;28;20144;-42
2021/07/15 04:32:52;;;;;;;12.70;10.48;;;;;;;26.09;64.44;99392.25;3482645;28;20084;-42
2021/07/15 04:34:36;;;;;;;17.63;11.27;;;;;;;26.12;64.12;99394.75;3472122;28;20077;-41
2021/07/15 04:36:17;;;;;;;18.40;10.75;;;;;;;26.16;64.77;99391.81;3470513;28;20519;-42
2021/07/15 04:38:00;;;;;;;17.58;11.98;;;;;;;26.23;64.62;99388.81;3469551;28;20054;-42
2021/07/15 04:39:42;;;;;;;15.77;11.18;;;;;;;26.30;63.49;99392.88;3474819;28;20079;-41
2021/07/15 04:41:25;;;;;;;15.15;11.70;;;;;;;26.35;63.18;99389.03;3468644;28;20422;-42
2021/07/15 04:43:08;;;;;;;;;;;;;;;26.45;63.32;99385.84;3476269;28;20045;-42
2021/07/15 04:44:50;;;;;;;15.40;11.13;;;;;;;26.51;62.47;99377.53;3480761;28;19932;-44
2021/07/15 04:46:33;;;;;;;14.20;10.70;;;;;;;26.57;62.50;99376.31;3471488;28;20050;-42
2021/07/15 04:48:17;;;;;;;18.30;11.70;;;;;;;26.64;62.04;99375.00;3470110;28;20566;-45
2021/07/15 04:49:58;;;;;;;;;;;;;;;26.70;61.49;99369.34;3482373;28;20087;-42
2021/07/15 04:51:40;;;;;;;15.88;11.68;;;;;;;26.73;61.12;99369.16;3478290;28;20083;-42
2021/07/15 04:53:24;;;;;;;14.90;9.50;;;;;;;26.77;61.74;99372.53;3476193;28;20041;-45
2021/07/15 04:55:08;;;;;;;15.15;10.55;;;;;;;26.83;60.52;99374.81;3473212;28;20515;-43
2021/07/15 04:56:50;;;;;;;18.55;11.15;;;;;;;26.87;61.54;99371.91;3469465;28;20050;-42
2021/07/15 04:58:33;;;;;;;16.83;10.82;;;;;;;26.94;60.65;99372.41;3478842;28;20136;-42
2021/07/15 05:00:15;;;;;;;14.55;11.05;;;;;;;27.02;60.94;99378.13;3479830;28;20550;-41
2021/07/15 05:01:57;;;;;;;18.55;11.52;;;;;;;27.10;60.94;99375.00;3468449;28;20054;-42
2021/07/15 05:03:40;;;;;;;17.98;10.50;;;;;;;27.16;60.36;99373.81;3472042;28;20063;-42
2021/07/15 05:05:21;;;;;;;14.38;10.05;;;;;;;27.22;60.75;99374.28;3468462;28;20531;-42
2021/07/15 05:07:03;;;;;;;14.05;10.63;;;;;;;27.29;60.00;99377.44;3471190;28;20104;-42
2021/07/15 05:08:45;;;;;;;17.27;11.05;;;;;;;27.38;60.47;99374.22;3469437;28;20049;-42
2021/07/15 05:10:26;;;;;;;15.07;10.93;;;;;;;27.44;59.50;99373.84;3479582;28;20106;-41
2021/07/15 05:12:09;;;;;;;14.30;9.50;;;;;;;27.50;59.50;99369.94;3477717;28;20076;-42
2021/07/15 05:13:50;;;;;;;12.63;9.23;;;;;;;27.53;58.66;99371.59;3482131;28;20045;-43
2021/07/15 05:15:32;;;;;;;15.50;11.32;;;;;;;27.57;59.52;99381.94;3476244;28;20059;-42
2021/07/15 05:17:13;;;;;;;16.30;11.35;;;;;;;27.65;59.18;99384.19;3468135;28;20085;-42
2021/07/15 05:18:55;;;;;;;13.93;10.18;;;;;;;27.71;58.88;99378.47;3471800;28;20051;-42
2021/07/15 05:20:36;;;;;;;16.08;10.55;;;;;;;27.81;59.13;99382.28;3469392;28;20046;-42
2021/07/15 05:22:17;;;;;;;15.55;10.68;;;;;;;27.94;59.82;99381.53;3479435;28;20834;-42
2021/07/15 05:23:59;;;;;;;11.73;9.88;;;;;;;28.04;58.01;99388.84;3477585;28;20072;-42
2021/07/15 05:25:41;;;;;;;14.60;10.98;;;;;;;28.13;58.37;99383.88;3468441;28;20049;-42
2021/07/15 05:27:23;;;;;;;14.45;10.05;;;;;;;28.14;57.01;99383.78;3471892;28;20056;-43
2021/07/15 05:29:04;;;;;;;15.90;10.00;;;;;;;28.14;57.70;99375.78;3469622;28;20199;-42
2021/07/15 05:30:45;;;;;;;17.10;10.27;;;;;;;28.20;57.02;99378.06;3478147;28;20091;-42
2021/07/15 05:32:27;;;;;;;12.15;9.32;;;;;;;28.25;56.12;99375.09;3477564;28;20468;-42
2021/07/15 05:34:08;;;;;;;11.55;8.68;;;;;;;28.24;56.49;99373.38;3481004;28;20122;-42
2021/07/15 05:35:49;;;;;;;25.25;8.30;;;;;;;28.34;56.24;99384.34;3479612;28;20044;-42
2021/07/15 05:37:31;;;;;;;14.95;8.82;;;;;;;28.38;55.95;99385.88;3482260;28;20071;-42
2021/07/15 05:39:13;;;;;;;11.05;9.05;;;;;;;28.46;56.02;99377.34;3477476;28;20073;-42
2021/07/15 05:40:55;;;;;;;23.08;9.90;;;;;;;28.56;56.29;99378.47;3482498;28;20084;-42
2021/07/15 05:42:36;;;;;;;17.40;9.25;;;;;;;28.66;55.18;99376.06;3472313;28;20076;-43
2021/07/15 05:44:18;;;;;;;24.30;10.02;;;;;;;28.73;55.50;99378.22;3472244;28;20088;-42
2021/07/15 05:45:59;;;;;;;13.23;9.85;;;;;;;28.76;55.11;99378.03;3470474;28;20135;-43
2021/07/15 05:47:41;;;;;;;15.02;8.38;;;;;;;28.85;54.80;99379.22;3474221;28;20049;-43
2021/07/15 05:49:22;;;;;;;30.08;10.45;;;;;;;28.93;54.73;99382.25;3484327;28;20075;-42
2021/07/15 05:51:04;;;;;;;39.80;11.18;;;;;;;28.91;54.82;99380.66;3479901;28;20141;-42
2021/07/15 05:52:45;;;;;;;12.35;9.90;;;;;;;28.93;54.40;99379.56;3478272;28;20050;-42
2021/07/15 05:54:27;;;;;;;13.88;9.82;;;;;;;29.00;54.32;99382.69;3473379;28;20554;-43
2021/07/15 05:56:08;;;;;;;15.88;9.90;;;;;;;29.01;54.59;99375.53;3472374;28;20057;-42
2021/07/15 05:57:50;;;;;;;11.93;9.32;;;;;;;29.06;54.04;99382.31;3471144;28;20052;-42
2021/07/15 05:59:32;;;;;;;15.50;9.25;;;;;;;29.13;54.22;99382.72;3473780;28;20054;-43
2021/07/15 06:01:14;;;;;;;15.93;9.82;;;;;;;29.26;54.80;99380.94;3484173;28;20518;-42
2021/07/15 06:02:55;;;;;;;12.88;9.25;;;;;;;29.42;54.14;99374.53;3479825;28;20045;-43
2021/07/15 06:04:40;;;;;;;17.00;9.50;;;;;;;29.53;54.02;99374.63;3483692;28;20082;-42
2021/07/15 06:06:21;;;;;;;13.73;9.90;;;;;;;29.66;53.72;99378.22;3471991;28;20049;-43
2021/07/15 06:08:03;;;;;;;26.05;9.88;;;;;;;29.69;51.96;99372.63;3472047;28;20045;-45
2021/07/15 06:09:45;;;;;;;10.23;8.32;;;;;;;29.72;51.59;99377.75;3483146;28;20080;-45
2021/07/15 06:11:27;;;;;;;12.32;8.65;;;;;;;29.79;52.09;99380.88;3479632;28;20081;-43
2021/07/15 06:13:08;;;;;;;13.45;9.35;;;;;;;29.85;51.88;99377.75;3483948;28;20053;-42
2021/07/15 06:14:49;;;;;;;27.65;9.55;;;;;;;29.95;52.15;99369.94;3475805;28;20491;-42
2021/07/15 06:16:30;;;;;;;14.82;9.75;;;;;;;30.11;52.23;99364.34;3471250;28;20060;-43
2021/07/15 06:18:12;;;;;;;18.45;10.45;;;;;;;30.24;52.04;99365.19;3471509;28;20054;-43
2021/07/15 06:19:53;;;;;;;15.55;9.32;;;;;;;30.37;50.92;99364.28;3470443;28;20155;-43
2021/07/15 06:21:35;;;;;;;10.95;8.60;;;;;;;30.41;50.50;99361.25;3482603;28;20569;-43
2021/07/15 06:23:16;;;;;;;10.70;8.15;;;;;;;30.52;51.09;99364.97;3479545;28;20111;-43
2021/07/15 06:24:58;;;;;;;15.68;8.82;;;;;;;30.64;49.27;99358.72;3483826;28;20437;-43
2021/07/15 06:26:39;;;;;;;13.85;8.50;;;;;;;30.75;50.33;99371.28;3476032;28;20674;-44
2021/07/15 06:28:21;;;;;;;11.38;8.50;;;;;;;30.82;49.45;99359.19;3470639;28;20126;-44
2021/07/15 06:30:04;;;;;;;19.33;9.65;;;;;;;30.94;49.83;99366.28;3482047;28;20084;-43
2021/07/15 06:31:45;;;;;;;14.35;8.68;;;;;;;31.03;48.72;99359.38;3480743;28;20156;-43
2021/07/15 06:33:27;;;;;;;15.07;8.65;;;;;;;31.04;47.97;99353.06;3482597;28;20053;-43
2021/07/15 06:35:08;;;;;;;12.70;8.13;;;;;;;31.02;47.71;99344.25;3479489;28;20088;-45
2021/07/15 06:36:51;;;;;;;11.57;8.50;;;;;;;31.06;47.54;99353.78;3483930;28;20076;-43
2021/07/15 06:38:34;;;;;;;20.65;9.98;;;;;;;31.08;47.08;99348.31;3479276;28;20485;-43
2021/07/15 06:40:16;;;;;;;14.50;9.48;;;;;;;31.18;47.76;99349.31;3483388;28;20133;-44
2021/07/15 06:41:59;;;;;;;15.03;8.00;;;;;;;31.19;45.80;99351.00;3480095;28;20079;-43
2021/07/15 06:43:41;;;;;;;11.98;8.43;;;;;;;31.21;46.49;99355.28;3480631;28;20469;-43
2021/07/15 06:45:23;;;;;;;20.50;10.33;;;;;;;31.30;47.02;99358.22;3470346;28;20085;-43
2021/07/15 06:47:07;;;;;;;13.50;8.52;;;;;;;31.40;46.59;99353.88;3473449;28;20072;-44
2021/07/15 06:48:48;;;;;;;21.45;8.23;;;;;;;31.52;46.32;99344.03;3470116;28;20054;-43
2021/07/15 06:50:30;;;;;;;11.93;8.07;;;;;;;31.61;46.26;99346.81;3477770;28;20041;-45
2021/07/15 06:52:11;;;;;;;11.45;7.53;;;;;;;31.72;44.59;99353.19;3480396;28;20083;-43
2021/07/15 06:53:53;;;;;;;13.98;7.85;;;;;;;31.80;44.73;99345.38;3479966;28;20076;-43
2021/07/15 06:55:36;;;;;;;11.32;7.60;;;;;;;31.88;44.27;99350.97;3481745;28;20055;-45
2021/07/15 06:57:17;;;;;;;19.70;7.67;;;;;;;31.97;46.13;99349.41;3470045;28;20083;-44
2021/07/15 06:58:58;;;;;;;12.45;6.97;;;;;;;31.99;44.31;99342.09;3473223;28;20990;-44
2021/07/15 07:00:40;;;;;;;14.10;8.02;;;;;;;32.05;42.69;99346.97;3469835;28;20049;-43
2021/07/15 07:02:21;;;;;;;14.55;7.43;;;;;;;32.04;43.11;99344.41;3471940;28;20136;-44
2021/07/15 07:04:03;;;;;;;10.50;7.15;;;;;;;32.10;44.58;99338.56;3470849;28;20140;-44
2021/07/15 07:05:44;;;;;;;10.20;7.32;;;;;;;32.16;42.96;99343.41;3481807;28;20152;-44
2021/07/15 07:07:26;;;;;;;12.45;7.43;;;;;;;32.23;44.02;99349.13;3480384;28;20049;-43
2021/07/15 07:09:07;;;;;;;9.32;7.07;;;;;;;32.26;42.44;99347.06;3470066;28;20147;-43
2021/07/15 07:10:49;;;;;;;9.50;6.60;;;;;;;32.28;43.61;99346.94;3471980;28;20472;-43
2021/07/15 07:12:30;;;;;;;12.18;7.28;;;;;;;32.29;42.97;99354.00;3469637;28;20057;-44
2021/07/15 07:14:12;;;;;;;10.60;7.20;;;;;;;32.30;42.29;99356.56;3477199;28;20114;-43
2021/07/15 07:15:53;;;;;;;13.63;7.47;;;;;;;32.24;41.49;99343.66;3483089;28;20049;-43
2021/07/15 07:17:34;;;;;;;9.55;6.03;;;;;;;32.32;41.55;99356.44;3479706;28;20056;-43
2021/07/15 07:19:16;;;;;;;9.77;6.88;;;;;;;32.26;42.23;99351.59;3480180;28;20526;-44
2021/07/15 07:21:00;;;;;;;8.13;6.90;;;;;;;32.19;42.58;99348.53;3482298;28;20090;-44
2021/07/15 07:22:41;;;;;;;11.52;7.82;;;;;;;32.28;42.26;99355.84;3478757;28;20081;-43
2021/07/15 07:24:23;;;;;;;11.63;7.13;;;;;;;32.38;42.63;99350.56;3483393;28;20063;-43
2021/07/15 07:26:06;;;;;;;34.80;8.20;;;;;;;32.48;40.51;99350.66;3481081;28;20098;-44
2021/07/15 07:27:48;;;;;;;14.13;7.35;;;;;;;32.43;40.54;99348.38;3482112;28;20100;-45
2021/07/15 07:29:29;;;;;;;14.27;7.05;;;;;;;32.35;41.81;99353.50;3471550;28;20052;-45
2021/07/15 07:31:10;;;;;;;18.58;7.70;;;;;;;32.31;41.55;99355.59;3470901;28;20546;-44
2021/07/15 07:32:52;;;;;;;10.20;7.05;;;;;;;32.36;41.02;99342.66;3482391;28;20052;-44
2021/07/15 07:34:34;;;;;;;15.50;7.32;;;;;;;32.38;41.22;99353.25;3477380;28;20049;-44
2021/07/15 07:36:15;;;;;;;12.68;7.45;;;;;;;32.32;40.69;99343.84;3483003;28;20523;-43
2021/07/15 07:37:57;;;;;;;15.55;7.18;;;;;;;32.42;41.01;99343.97;3473684;28;20076;-45
2021/07/15 07:39:38;;;;;;;24.35;7.97;;;;;;;32.45;41.55;99346.41;3470490;28;20081;-44
2021/07/15 07:41:20;;;;;;;11.30;7.05;;;;;;;32.45;40.73;99346.41;3479477;28;20045;-44
2021/07/15 07:43:02;;;;;;;10.73;7.15;;;;;;;32.53;41.96;99349.31;3480008;28;20085;-44
2021/07/15 07:44:43;;;;;;;11.18;7.75;;;;;;;32.64;40.21;99345.72;3469759;28;20073;-44
2021/07/15 07:46:25;;;;;;;13.95;8.18;;;;;;;32.72;39.38;99347.81;3472823;28;20091;-44
2021/07/15 07:48:06;;;;;;;8.68;7.18;;;;;;;32.84;39.38;99343.25;3469561;28;20053;-44
2021/07/15 07:49:47;;;;;;;10.48;7.47;;;;;;;32.86;40.54;99350.16;3476756;28;20057;-44
2021/07/15 07:51:30;;;;;;;11.52;7.43;;;;;;;33.03;39.98;99350.56;3482743;28;20092;-44
2021/07/15 07:53:11;;;;;;;12.05;8.02;;;;;;;33.13;38.69;99357.75;3469488;28;20057;-44
2021/07/15 07:54:52;;;;;;;10.27;6.72;;;;;;;33.16;39.02;99345.06;3472317;28;20076;-44
2021/07/15 07:56:34;;;;;;;10.80;7.20;;;;;;;33.26;40.28;99348.63;3469890;28;20084;-44
2021/07/15 07:58:16;;;;;;;10.48;6.30;;;;;;;33.31;38.67;99351.78;3472875;28;20049;-44